Time;durP1;ratioP1;P1;durP2;ratioP2;P2;SDS_P1;SDS_P2;PMS_P1;PMS_P2;Temp;Humidity;BMP_temperature;BMP_pressure;BME280_temperature;BME280_humidity;BME280_pressure;Samples;Min_cycle;Max_cycle;Signal;HPM_P1;HPM_P2
2022/12/01 00:01:07;;;;;;;19.70;12.90;;;3.90;99.90;;;;;;5118453;27;20760;-82
2022/12/01 00:03:56;;;;;;;21.23;13.23;;;3.80;99.90;;;;;;5118109;27;20226;-82
2022/12/01 00:06:46;;;;;;;21.10;14.10;;;4.00;99.90;;;;;;5121193;27;20223;-81
2022/12/01 00:12:42;;;;;;;21.07;13.10;;;4.00;99.90;;;;;;5114483;27;20221;-80
2022/12/01 00:15:34;;;;;;;18.90;13.00;;;3.70;99.90;;;;;;5114793;27;20225;-79
2022/12/01 00:18:22;;;;;;;19.73;12.93;;;3.80;99.90;;;;;;5115962;27;20245;-79
2022/12/01 00:21:19;;;;;;;21.77;13.17;;;3.70;99.90;;;;;;5115517;27;20237;-83
2022/12/01 00:24:10;;;;;;;21.57;13.13;;;3.80;99.90;;;;;;5117645;27;20230;-79
2022/12/01 00:26:59;;;;;;;19.53;13.10;;;4.00;99.90;;;;;;5115682;27;20222;-80
2022/12/01 00:29:47;;;;;;;20.93;13.00;;;3.80;99.90;;;;;;5112988;27;20275;-80
2022/12/01 00:32:36;;;;;;;21.90;12.90;;;3.70;99.90;;;;;;5108341;27;20214;-80
2022/12/01 00:35:24;;;;;;;19.70;13.23;;;3.90;99.90;;;;;;5127190;27;20230;-79
2022/12/01 00:38:14;;;;;;;22.43;13.57;;;3.80;99.90;;;;;;5126423;27;20255;-80
2022/12/01 00:41:03;;;;;;;24.27;13.47;;;3.60;99.90;;;;;;5118738;27;20316;-76
2022/12/01 00:43:52;;;;;;;20.53;13.67;;;3.70;99.90;;;;;;5123641;27;20214;-80
2022/12/01 00:46:41;;;;;;;22.23;14.23;;;3.80;99.90;;;;;;5123262;27;20210;-79
2022/12/01 00:49:29;;;;;;;20.27;13.67;;;3.70;99.90;;;;;;5121850;27;20290;-79
2022/12/01 00:52:19;;;;;;;20.43;13.80;;;4.00;99.90;;;;;;5116925;27;20241;-79
2022/12/01 00:55:09;;;;;;;22.07;14.40;;;4.00;99.90;;;;;;5117803;27;20245;-79
2022/12/01 00:57:58;;;;;;;21.50;14.30;;;3.80;99.90;;;;;;5115151;27;21013;-79
2022/12/01 01:00:47;;;;;;;23.53;14.47;;;3.70;99.90;;;;;;5126253;27;20225;-79
2022/12/01 01:03:35;;;;;;;20.43;14.00;;;3.50;99.90;;;;;;5119200;27;20252;-79
2022/12/01 01:06:24;;;;;;;22.30;14.70;;;3.60;99.90;;;;;;5120863;27;20701;-78
2022/12/01 01:09:14;;;;;;;20.70;14.37;;;3.80;99.90;;;;;;5118242;27;20249;-79
2022/12/01 01:12:04;;;;;;;22.37;14.67;;;3.60;99.90;;;;;;5117099;27;20307;-79
2022/12/01 01:14:53;;;;;;;22.27;14.93;;;3.60;99.90;;;;;;5122236;27;20210;-79
2022/12/01 01:17:41;;;;;;;23.03;14.73;;;3.90;99.90;;;;;;5122443;27;20222;-79
2022/12/01 01:20:34;;;;;;;22.00;14.80;;;4.00;99.90;;;;;;5118549;27;20219;-79
2022/12/01 01:23:23;;;;;;;22.03;14.77;;;4.00;99.90;;;;;;5127067;27;20218;-79
2022/12/01 01:26:13;;;;;;;22.50;15.20;;;4.10;99.90;;;;;;5112149;27;20317;-79
2022/12/01 01:29:06;;;;;;;21.80;14.80;;;3.80;99.90;;;;;;5123873;27;20218;-80
2022/12/01 01:31:55;;;;;;;23.67;15.03;;;3.60;99.90;;;;;;5116134;27;20217;-80
2022/12/01 01:34:43;;;;;;;22.47;16.00;;;3.70;99.90;;;;;;5119112;27;20218;-80
2022/12/01 01:37:32;;;;;;;22.87;14.77;;;3.90;99.90;;;;;;5123288;27;20736;-80
2022/12/01 01:40:20;;;;;;;22.73;14.47;;;4.00;99.90;;;;;;5123704;27;20758;-81
2022/12/01 01:43:15;;;;;;;25.23;15.90;;;3.70;99.90;;;;;;5117405;27;20226;-80
2022/12/01 01:46:06;;;;;;;23.67;15.70;;;3.90;99.90;;;;;;5114306;27;20241;-79
2022/12/01 01:48:59;;;;;;;23.17;15.43;;;3.90;99.90;;;;;;5116395;27;20211;-79
2022/12/01 01:51:51;;;;;;;22.67;15.70;;;4.00;99.90;;;;;;5117987;27;20712;-79
2022/12/01 01:54:44;;;;;;;25.63;16.67;;;3.90;99.90;;;;;;5121844;27;20237;-79
2022/12/01 01:57:34;;;;;;;23.87;15.93;;;3.80;99.90;;;;;;5110475;27;20229;-79
2022/12/01 02:00:23;;;;;;;23.37;15.37;;;3.80;99.90;;;;;;5113075;27;20777;-80
2022/12/01 02:03:18;;;;;;;22.80;16.30;;;3.50;99.90;;;;;;5121408;27;20236;-80
2022/12/01 02:06:09;;;;;;;21.67;15.60;;;3.50;99.90;;;;;;5124901;27;20271;-80
2022/12/01 02:08:57;;;;;;;24.70;16.03;;;3.80;99.90;;;;;;5122652;27;20217;-80
2022/12/01 02:12:03;;;;;;;22.27;15.60;;;3.90;99.90;;;;;;5115136;27;20229;-79
2022/12/01 02:15:12;;;;;;;23.77;16.60;;;3.70;99.90;;;;;;5121450;27;20225;-80
2022/12/01 02:18:24;;;;;;;23.07;16.47;;;3.70;99.90;;;;;;5120855;27;20217;-80
2022/12/01 02:21:31;;;;;;;25.93;16.93;;;3.60;99.90;;;;;;5117487;27;20286;-80
2022/12/01 02:25:14;;;;;;;22.87;16.40;;;3.50;99.90;;;;;;5130592;27;20248;-80
2022/12/01 02:28:20;;;;;;;27.40;17.33;;;3.60;99.90;;;;;;5104748;27;20233;-80
2022/12/01 02:31:14;;;;;;;24.33;17.67;;;3.60;99.90;;;;;;5117743;27;20305;-80
2022/12/01 02:34:10;;;;;;;23.67;16.17;;;3.60;99.90;;;;;;5122338;27;20256;-79
2022/12/01 02:37:07;;;;;;;24.87;16.07;;;3.60;99.90;;;;;;5120464;27;20270;-78
2022/12/01 02:40:06;;;;;;;26.80;17.60;;;3.60;99.90;;;;;;5116417;27;20223;-78
2022/12/01 02:43:02;;;;;;;24.53;17.37;;;3.70;99.90;;;;;;5133015;27;20241;-81
2022/12/01 02:45:54;;;;;;;26.43;16.60;;;3.60;99.90;;;;;;5116395;27;20219;-79
2022/12/01 02:48:48;;;;;;;24.87;17.63;;;3.50;99.90;;;;;;5118906;27;20222;-80
2022/12/01 02:51:40;;;;;;;24.10;17.20;;;3.60;99.90;;;;;;5125352;27;20218;-79
2022/12/01 02:54:31;;;;;;;24.97;17.27;;;3.90;99.90;;;;;;5128801;27;20230;-81
2022/12/01 02:57:23;;;;;;;25.73;17.03;;;3.80;99.90;;;;;;5118811;27;20241;-80
2022/12/01 03:00:14;;;;;;;24.20;17.43;;;3.70;99.90;;;;;;5114664;27;20230;-80
2022/12/01 03:03:20;;;;;;;24.33;17.17;;;3.60;99.90;;;;;;5118997;27;20219;-81
2022/12/01 03:06:19;;;;;;;25.23;17.43;;;3.50;99.90;;;;;;5112663;27;20720;-82
2022/12/01 03:09:16;;;;;;;24.47;17.53;;;3.50;99.90;;;;;;5117670;27;20234;-82
2022/12/01 03:12:14;;;;;;;26.50;18.47;;;3.50;99.90;;;;;;5128087;27;20590;-79
2022/12/01 03:15:08;;;;;;;26.30;17.57;;;3.70;99.90;;;;;;5120050;27;20262;-79
2022/12/01 03:18:05;;;;;;;26.53;18.83;;;3.60;99.90;;;;;;5116589;27;20290;-78
2022/12/01 03:20:59;;;;;;;24.93;18.00;;;3.70;99.90;;;;;;5122497;27;20225;-78
2022/12/01 03:23:54;;;;;;;25.00;17.50;;;3.60;99.90;;;;;;5122060;27;20455;-79
2022/12/01 03:26:47;;;;;;;27.57;17.43;;;3.80;99.90;;;;;;5119325;27;20221;-78
2022/12/01 03:29:40;;;;;;;51.13;33.43;;;3.90;99.90;;;;;;5120308;27;20252;-78
2022/12/01 03:32:33;;;;;;;27.73;18.87;;;3.80;99.90;;;;;;5120366;27;20222;-78
2022/12/01 03:35:25;;;;;;;24.70;17.73;;;3.50;99.90;;;;;;5118645;27;20719;-80
2022/12/01 03:38:19;;;;;;;28.80;19.07;;;3.40;99.90;;;;;;5116825;27;20617;-80
2022/12/01 03:41:14;;;;;;;28.83;18.97;;;3.40;99.90;;;;;;5115411;27;20229;-80
2022/12/01 03:44:08;;;;;;;25.93;18.67;;;3.50;99.90;;;;;;5118685;27;20229;-79
2022/12/01 03:46:59;;;;;;;25.33;17.40;;;3.70;99.90;;;;;;5113302;27;20222;-79
2022/12/01 03:49:50;;;;;;;28.23;19.37;;;4.00;99.90;;;;;;5115698;27;20245;-78
2022/12/01 03:52:46;;;;;;;29.43;18.83;;;4.10;99.90;;;;;;5121144;27;20222;-78
2022/12/01 03:55:41;;;;;;;26.97;18.23;;;4.00;99.90;;;;;;5118757;27;20222;-80
2022/12/01 03:58:35;;;;;;;24.77;17.70;;;3.80;99.90;;;;;;5125670;27;20221;-80
2022/12/01 04:01:25;;;;;;;29.77;18.83;;;4.00;99.90;;;;;;5119242;27;20246;-80
2022/12/01 04:04:14;;;;;;;27.30;18.27;;;3.90;99.90;;;;;;5111363;27;20232;-81
2022/12/01 04:07:03;;;;;;;27.97;18.70;;;4.00;99.90;;;;;;5113024;27;20363;-80
2022/12/01 04:09:52;;;;;;;28.27;19.10;;;4.20;99.90;;;;;;5116046;27;20237;-83
2022/12/01 04:12:39;;;;;;;30.20;18.93;;;3.90;99.90;;;;;;5119699;27;20705;-83
2022/12/01 04:15:30;;;;;;;29.00;19.27;;;4.10;99.90;;;;;;5118716;27;20230;-83
2022/12/01 04:18:18;;;;;;;27.20;18.63;;;4.10;99.90;;;;;;5124904;27;20245;-84
2022/12/01 04:21:07;;;;;;;28.63;18.83;;;4.00;99.90;;;;;;5120723;27;20359;-83
2022/12/01 04:24:02;;;;;;;27.47;18.63;;;3.90;99.90;;;;;;5134065;27;20601;-83
2022/12/01 04:26:50;;;;;;;31.83;19.87;;;3.70;99.90;;;;;;5129204;27;20508;-85
2022/12/01 04:29:39;;;;;;;29.33;19.50;;;3.90;99.90;;;;;;5121757;27;20696;-84
2022/12/01 04:32:29;;;;;;;30.47;19.17;;;3.90;99.90;;;;;;5118230;27;20283;-83
2022/12/01 04:35:17;;;;;;;30.37;19.13;;;3.80;99.90;;;;;;5116378;27;20240;-83
2022/12/01 04:38:06;;;;;;;32.13;19.70;;;3.60;99.90;;;;;;5115835;27;20227;-79
2022/12/01 04:40:55;;;;;;;31.13;19.67;;;3.60;99.90;;;;;;5111288;27;20257;-78
2022/12/01 04:43:43;;;;;;;31.00;20.87;;;3.80;99.90;;;;;;5117450;27;20296;-77
2022/12/01 04:46:32;;;;;;;28.83;19.13;;;3.80;99.90;;;;;;5130283;27;20329;-79
2022/12/01 04:49:22;;;;;;;26.73;18.73;;;3.70;99.90;;;;;;5116075;27;20214;-79
2022/12/01 04:52:11;;;;;;;31.17;19.77;;;3.80;99.90;;;;;;5117619;27;20226;-80
2022/12/01 04:54:59;;;;;;;29.60;19.00;;;4.00;99.90;;;;;;5112114;27;20296;-80
2022/12/01 04:57:48;;;;;;;28.30;19.00;;;4.10;99.90;;;;;;5112203;27;20680;-78
2022/12/01 05:00:37;;;;;;;26.77;17.80;;;3.90;99.90;;;;;;5116281;28;20218;-79
2022/12/01 05:03:25;;;;;;;24.67;17.50;;;4.00;99.90;;;;;;5119943;27;20253;-79
2022/12/01 05:06:18;;;;;;;26.07;18.27;;;3.90;99.90;;;;;;5113697;27;20307;-78
2022/12/01 05:09:07;;;;;;;27.43;18.37;;;4.00;99.90;;;;;;5121410;27;20233;-79
2022/12/01 05:12:01;;;;;;;26.43;17.70;;;3.80;99.90;;;;;;5117557;27;20207;-78
2022/12/01 05:14:50;;;;;;;27.27;17.83;;;3.80;99.90;;;;;;5110427;27;20697;-78
2022/12/01 05:17:39;;;;;;;25.93;17.60;;;3.70;99.90;;;;;;5115829;27;20238;-79
2022/12/01 05:23:37;;;;;;;27.93;18.53;;;3.80;99.90;;;;;;5127118;27;20577;-79
2022/12/01 05:26:25;;;;;;;28.03;19.20;;;3.70;99.90;;;;;;5115993;27;20225;-79
2022/12/01 05:29:14;;;;;;;27.33;18.07;;;3.90;99.90;;;;;;5109014;27;20309;-78
2022/12/01 05:32:03;;;;;;;30.27;19.07;;;3.80;99.90;;;;;;5111719;27;20694;-78
2022/12/01 05:34:52;;;;;;;29.87;19.53;;;4.00;99.90;;;;;;5114231;27;20221;-78
2022/12/01 05:37:40;;;;;;;31.07;19.00;;;4.00;99.90;;;;;;5113153;27;20368;-78
2022/12/01 05:40:30;;;;;;;29.10;19.33;;;3.90;99.90;;;;;;5119413;27;20252;-78
2022/12/01 05:43:20;;;;;;;29.10;18.50;;;4.00;99.90;;;;;;5113373;27;20217;-78
2022/12/01 05:46:15;;;;;;;31.57;19.27;;;3.80;99.90;;;;;;5111662;27;20218;-78
2022/12/01 05:49:04;;;;;;;29.57;19.67;;;4.00;99.90;;;;;;5118357;27;20222;-78
2022/12/01 05:51:52;;;;;;;29.80;19.13;;;3.80;99.90;;;;;;5131541;27;20222;-78
2022/12/01 05:54:41;;;;;;;29.17;18.87;;;3.90;99.90;;;;;;5121570;27;20231;-78
2022/12/01 05:57:32;;;;;;;29.60;20.10;;;4.00;99.90;;;;;;5115941;27;20221;-78
2022/12/01 06:00:21;;;;;;;27.43;18.33;;;3.70;99.90;;;;;;5119510;27;20671;-77
2022/12/01 06:03:09;;;;;;;27.80;19.60;;;3.70;99.90;;;;;;5130090;27;20225;-78
2022/12/01 06:05:58;;;;;;;28.53;19.20;;;3.80;99.90;;;;;;5119176;27;20233;-77
2022/12/01 06:08:47;;;;;;;26.43;18.83;;;3.90;99.90;;;;;;5118062;27;20261;-77
2022/12/01 06:11:36;;;;;;;24.20;17.43;;;3.90;99.90;;;;;;5117337;27;20210;-76
2022/12/01 06:14:26;;;;;;;24.87;16.87;;;3.80;99.90;;;;;;5116004;27;20267;-77
2022/12/01 06:17:14;;;;;;;26.83;17.57;;;3.90;99.90;;;;;;5121542;27;20240;-78
2022/12/01 06:20:03;;;;;;;24.60;16.57;;;3.80;99.90;;;;;;5118326;27;20226;-79
2022/12/01 06:22:52;;;;;;;26.50;16.53;;;3.80;99.90;;;;;;5119515;27;20222;-79
2022/12/01 06:25:40;;;;;;;23.30;17.03;;;3.80;99.90;;;;;;5122175;27;20265;-77
2022/12/01 06:28:29;;;;;;;23.07;16.00;;;4.00;99.90;;;;;;5121893;27;20222;-79
2022/12/01 06:31:19;;;;;;;23.73;15.67;;;3.80;99.90;;;;;;5118048;27;20217;-79
2022/12/01 06:34:07;;;;;;;22.97;15.93;;;3.80;99.90;;;;;;5131262;27;20230;-79
2022/12/01 06:36:56;;;;;;;24.03;15.97;;;3.80;99.90;;;;;;5122866;27;20226;-78
2022/12/01 06:39:45;;;;;;;21.77;15.20;;;3.70;99.90;;;;;;5120065;27;20596;-80
2022/12/01 06:42:34;;;;;;;21.77;15.83;;;3.40;99.90;;;;;;5124704;27;20866;-81
2022/12/01 06:45:23;;;;;;;19.20;14.27;;;3.50;99.90;;;;;;5116834;27;20225;-81
2022/12/01 06:48:13;;;;;;;21.17;15.67;;;3.20;99.90;;;;;;5117755;27;20235;-80
2022/12/01 06:51:02;;;;;;;23.83;17.63;;;3.30;99.90;;;;;;5112599;27;20219;-80
2022/12/01 06:53:53;;;;;;;28.80;18.83;;;3.50;99.90;;;;;;5115675;27;20229;-80
2022/12/01 06:56:42;;;;;;;27.47;18.90;;;3.70;99.90;;;;;;5113213;27;20210;-81
2022/12/01 06:59:31;;;;;;;24.23;17.40;;;3.70;99.90;;;;;;5118234;27;20222;-77
2022/12/01 07:02:20;;;;;;;24.53;17.37;;;3.50;99.90;;;;;;5122648;27;20276;-77
2022/12/01 07:05:10;;;;;;;25.73;17.10;;;3.70;99.90;;;;;;5128993;27;20285;-76
2022/12/01 07:07:59;;;;;;;21.97;15.73;;;3.60;99.90;;;;;;5120639;27;20226;-78
2022/12/01 07:10:56;;;;;;;22.60;15.97;;;3.40;99.90;;;;;;5120789;27;20829;-77
2022/12/01 07:13:45;;;;;;;21.17;15.77;;;3.50;99.90;;;;;;5114433;27;20214;-76
2022/12/01 07:16:34;;;;;;;21.97;15.67;;;3.50;99.90;;;;;;5121097;27;20229;-78
2022/12/01 07:19:22;;;;;;;24.33;14.90;;;3.50;99.90;;;;;;5116931;27;20874;-76
2022/12/01 07:22:12;;;;;;;21.20;15.10;;;3.50;99.90;;;;;;5117624;27;20279;-78
2022/12/01 07:25:01;;;;;;;20.90;13.93;;;3.50;99.90;;;;;;5115752;27;20245;-81
2022/12/01 07:27:49;;;;;;;20.83;14.20;;;3.60;99.90;;;;;;5113910;27;20299;-82
2022/12/01 07:30:38;;;;;;;23.80;15.63;;;3.50;99.90;;;;;;5123115;27;20236;-77
2022/12/01 07:33:26;;;;;;;25.33;15.50;;;3.30;99.90;;;;;;5119166;27;20218;-75
2022/12/01 07:36:15;;;;;;;26.87;15.53;;;3.30;99.90;;;;;;5112177;27;20704;-74
2022/12/01 07:39:07;;;;;;;20.93;15.37;;;3.40;99.90;;;;;;5114967;27;20265;-78
2022/12/01 07:41:55;;;;;;;25.77;16.37;;;3.40;99.90;;;;;;5120917;27;20230;-77
2022/12/01 07:44:44;;;;;;;23.70;15.73;;;3.40;99.90;;;;;;5117062;27;20221;-77
2022/12/01 07:47:33;;;;;;;22.83;15.47;;;3.70;99.90;;;;;;5132523;27;20802;-78
2022/12/01 07:50:21;;;;;;;25.13;15.97;;;3.60;99.90;;;;;;5122486;27;20218;-79
2022/12/01 07:53:10;;;;;;;23.97;15.83;;;3.90;99.90;;;;;;5116819;27;20233;-79
2022/12/01 07:56:00;;;;;;;25.40;16.87;;;3.70;99.90;;;;;;5121726;27;20218;-79
2022/12/01 07:58:55;;;;;;;25.80;16.53;;;3.60;99.90;;;;;;5116721;27;20215;-78
2022/12/01 08:01:45;;;;;;;27.10;17.07;;;3.40;99.90;;;;;;5117825;27;20210;-72
2022/12/01 08:04:33;;;;;;;23.90;17.17;;;3.60;99.90;;;;;;5117609;27;20296;-73
2022/12/01 08:07:25;;;;;;;24.97;16.17;;;3.60;99.90;;;;;;5116392;27;20222;-73
2022/12/01 08:10:18;;;;;;;25.90;17.00;;;3.40;99.90;;;;;;5117511;27;20214;-72
2022/12/01 08:13:07;;;;;;;30.90;19.00;;;3.30;99.90;;;;;;5117584;27;20233;-73
2022/12/01 08:16:05;;;;;;;24.80;16.73;;;3.40;99.90;;;;;;5120958;27;20217;-72
2022/12/01 08:18:53;;;;;;;23.80;16.40;;;3.60;99.90;;;;;;5110689;27;20225;-74
2022/12/01 08:21:42;;;;;;;23.60;17.27;;;3.70;99.90;;;;;;5121056;27;20221;-73
2022/12/01 08:24:31;;;;;;;24.00;16.80;;;3.70;99.90;;;;;;5114722;27;21001;-72
2022/12/01 08:27:19;;;;;;;25.53;16.57;;;3.70;99.90;;;;;;5112446;27;20229;-73
2022/12/01 08:30:10;;;;;;;25.17;17.20;;;3.60;99.90;;;;;;5113324;27;20221;-73
2022/12/01 08:32:59;;;;;;;25.33;17.07;;;3.40;99.90;;;;;;5119208;27;20210;-72
2022/12/01 08:35:47;;;;;;;29.03;17.07;;;3.50;99.90;;;;;;5122724;27;20348;-72
2022/12/01 08:38:36;;;;;;;24.97;16.60;;;3.60;99.90;;;;;;5123708;27;20222;-73
2022/12/01 08:41:25;;;;;;;28.40;19.03;;;3.90;99.90;;;;;;5100655;27;20958;-71
2022/12/01 08:44:13;;;;;;;30.07;17.53;;;3.90;99.90;;;;;;5097660;27;20230;-72
2022/12/01 08:47:03;;;;;;;27.97;18.03;;;3.70;99.90;;;;;;5097433;28;20694;-73
2022/12/01 08:49:52;;;;;;;26.30;17.20;;;3.80;99.90;;;;;;5102502;28;20719;-74
2022/12/01 08:52:40;;;;;;;26.57;18.27;;;3.70;99.90;;;;;;5096934;28;20218;-73
2022/12/01 08:55:29;;;;;;;27.10;16.97;;;3.60;99.90;;;;;;5100395;28;20243;-74
2022/12/01 08:58:18;;;;;;;24.80;16.77;;;3.70;99.90;;;;;;5097035;27;20229;-73
2022/12/01 09:01:08;;;;;;;24.27;16.07;;;3.70;99.90;;;;;;5102353;28;20295;-73
2022/12/01 09:04:07;;;;;;;26.47;16.40;;;3.80;99.90;;;;;;5096957;28;20227;-74
2022/12/01 09:06:57;;;;;;;28.60;15.87;;;3.50;99.90;;;;;;5094758;28;20237;-72
2022/12/01 09:09:46;;;;;;;23.87;17.23;;;3.50;99.90;;;;;;5096060;27;20231;-74
2022/12/01 09:12:35;;;;;;;26.10;17.67;;;3.70;99.90;;;;;;5098045;28;20238;-73
2022/12/01 09:15:24;;;;;;;27.77;16.83;;;3.90;99.90;;;;;;5095633;28;21632;-75
2022/12/01 09:18:12;;;;;;;26.47;16.50;;;3.90;99.90;;;;;;5088362;27;20257;-73
2022/12/01 09:21:10;;;;;;;25.67;17.10;;;3.80;99.90;;;;;;5099041;28;20226;-75
2022/12/01 09:23:59;;;;;;;26.10;17.43;;;3.90;99.90;;;;;;5101095;28;20242;-73
2022/12/01 09:26:47;;;;;;;28.00;17.70;;;3.80;99.90;;;;;;5102273;27;20249;-74
2022/12/01 09:29:36;;;;;;;30.83;18.10;;;3.90;99.90;;;;;;5105095;27;20301;-75
2022/12/01 09:32:25;;;;;;;27.17;18.17;;;4.10;99.90;;;;;;5111290;27;20867;-73
2022/12/01 09:35:13;;;;;;;24.43;16.73;;;3.90;99.90;;;;;;5089610;28;20252;-73
2022/12/01 09:38:04;;;;;;;25.73;17.43;;;3.90;99.90;;;;;;5097496;27;20224;-74
2022/12/01 09:40:53;;;;;;;25.43;16.83;;;3.90;99.90;;;;;;5108706;27;20230;-72
2022/12/01 09:43:45;;;;;;;29.33;17.60;;;3.80;99.90;;;;;;5127702;27;20778;-72
2022/12/01 09:46:37;;;;;;;27.87;19.03;;;3.90;99.90;;;;;;5120720;27;20708;-73
2022/12/01 09:49:36;;;;;;;29.87;19.57;;;3.70;99.90;;;;;;5119291;27;20233;-75
2022/12/01 09:52:27;;;;;;;30.87;19.37;;;3.90;99.90;;;;;;5120897;27;20724;-73
2022/12/01 09:55:20;;;;;;;28.20;18.30;;;3.90;99.90;;;;;;5126915;27;20213;-72
2022/12/01 09:58:16;;;;;;;29.90;18.63;;;4.10;99.90;;;;;;5119449;27;20241;-72
2022/12/01 10:01:05;;;;;;;28.67;17.90;;;3.80;99.90;;;;;;5132744;27;20292;-73
2022/12/01 10:03:57;;;;;;;29.07;17.73;;;3.50;99.90;;;;;;5125023;27;20256;-72
2022/12/01 10:06:51;;;;;;;28.53;17.93;;;3.60;99.90;;;;;;5126701;27;20214;-74
2022/12/01 10:09:47;;;;;;;26.23;17.23;;;3.70;99.90;;;;;;5123397;27;20214;-73
2022/12/01 10:12:37;;;;;;;29.17;18.37;;;3.50;99.90;;;;;;5101563;27;20250;-73
2022/12/01 10:15:36;;;;;;;30.87;17.87;;;3.50;99.90;;;;;;5080472;28;20223;-73
2022/12/01 10:18:35;;;;;;;30.10;18.87;;;3.40;99.90;;;;;;5100453;27;20217;-72
2022/12/01 10:21:39;;;;;;;27.63;18.07;;;3.60;99.90;;;;;;5089122;28;20233;-73
2022/12/01 10:24:43;;;;;;;29.80;17.47;;;3.60;99.90;;;;;;5100994;28;20229;-73
2022/12/01 10:27:45;;;;;;;28.43;17.80;;;3.30;99.90;;;;;;5085188;27;20212;-74
2022/12/01 10:30:38;;;;;;;28.90;17.67;;;3.50;99.90;;;;;;5110780;27;20229;-74
2022/12/01 10:33:33;;;;;;;31.60;18.50;;;3.70;99.90;;;;;;5111601;27;20225;-74
2022/12/01 10:36:22;;;;;;;32.20;20.60;;;3.40;99.90;;;;;;5119761;27;20681;-74
2022/12/01 10:39:18;;;;;;;36.23;20.47;;;3.30;99.90;;;;;;5103552;27;20773;-73
2022/12/01 10:42:13;;;;;;;36.87;21.17;;;3.30;99.90;;;;;;5107515;27;20238;-74
2022/12/01 10:45:06;;;;;;;35.90;21.43;;;3.30;99.90;;;;;;5122180;27;20227;-74
2022/12/01 10:48:14;;;;;;;33.57;21.70;;;3.30;99.90;;;;;;5107023;27;20214;-73
2022/12/01 10:51:15;;;;;;;39.63;22.80;;;3.40;99.90;;;;;;5131525;27;20225;-72
2022/12/01 10:54:10;;;;;;;36.53;23.13;;;3.60;99.90;;;;;;5126720;27;20224;-73
2022/12/01 10:56:59;;;;;;;35.70;22.43;;;3.70;99.90;;;;;;5116108;27;20701;-73
2022/12/01 10:59:51;;;;;;;38.10;22.40;;;3.70;99.90;;;;;;5105055;27;20283;-74
2022/12/01 11:02:43;;;;;;;38.63;23.33;;;3.40;99.90;;;;;;5105826;27;20309;-73
2022/12/01 11:05:38;;;;;;;39.07;23.63;;;3.50;99.90;;;;;;5124514;27;20235;-74
2022/12/01 11:08:35;;;;;;;50.73;32.57;;;3.50;99.90;;;;;;5118195;27;20244;-74
2022/12/01 11:11:28;;;;;;;51.23;29.03;;;3.40;99.90;;;;;;5117136;27;20709;-73
2022/12/01 11:14:19;;;;;;;55.00;28.77;;;3.70;99.90;;;;;;5123057;27;20362;-73
2022/12/01 11:17:26;;;;;;;55.97;28.67;;;3.50;99.90;;;;;;5103943;27;20305;-73
2022/12/01 11:20:28;;;;;;;60.27;29.17;;;3.50;99.90;;;;;;5116471;27;20220;-75
2022/12/01 11:23:27;;;;;;;56.00;30.23;;;3.40;99.90;;;;;;5100306;27;20224;-75
2022/12/01 11:26:19;;;;;;;56.20;29.80;;;3.60;99.90;;;;;;5107911;27;20332;-74
2022/12/01 11:29:27;;;;;;;62.37;31.50;;;3.60;99.90;;;;;;5120474;27;20233;-73
2022/12/01 11:32:20;;;;;;;57.07;29.70;;;3.90;99.90;;;;;;5112595;27;20222;-75
2022/12/01 11:35:18;;;;;;;66.77;29.50;;;3.80;99.90;;;;;;5125571;27;20229;-73
2022/12/01 11:38:18;;;;;;;52.33;26.07;;;3.60;99.90;;;;;;5120652;27;20568;-72
2022/12/01 11:41:29;;;;;;;55.47;27.30;;;3.70;99.90;;;;;;5105079;27;20607;-74
2022/12/01 11:44:20;;;;;;;58.23;27.83;;;3.70;99.90;;;;;;5110569;27;20857;-74
2022/12/01 11:47:29;;;;;;;53.03;26.37;;;3.80;99.90;;;;;;5101475;27;20222;-75
2022/12/01 11:50:26;;;;;;;53.33;26.53;;;3.60;99.90;;;;;;5115339;27;20241;-74
2022/12/01 11:53:28;;;;;;;52.30;24.87;;;3.50;99.90;;;;;;5106556;27;20731;-75
2022/12/01 11:56:22;;;;;;;45.27;25.53;;;3.40;99.90;;;;;;5103710;27;20220;-75
2022/12/01 11:59:14;;;;;;;52.43;24.83;;;3.40;99.90;;;;;;5096438;27;20245;-74
2022/12/01 12:02:18;;;;;;;55.47;26.23;;;3.40;99.90;;;;;;5113233;27;20716;-74
2022/12/01 12:05:52;;;;;;;53.77;26.77;;;3.10;99.90;;;;;;5103576;27;20229;-75
2022/12/01 12:09:12;;;;;;;52.43;26.10;;;3.30;99.90;;;;;;5088831;27;20693;-75
2022/12/01 12:12:15;;;;;;;55.83;27.13;;;3.20;99.90;;;;;;5114769;27;20262;-76
2022/12/01 12:15:15;;;;;;;50.90;26.50;;;3.10;99.90;;;;;;5112028;27;20218;-75
2022/12/01 12:18:30;;;;;;;54.60;26.93;;;3.20;99.90;;;;;;5114772;27;20228;-76
2022/12/01 12:21:28;;;;;;;55.97;26.83;;;3.20;99.90;;;;;;5118337;27;20226;-73
2022/12/01 12:24:37;;;;;;;53.00;27.83;;;3.20;99.90;;;;;;5113412;27;20229;-74
2022/12/01 12:27:36;;;;;;;47.67;26.00;;;3.30;99.90;;;;;;5118492;27;20222;-75
2022/12/01 12:30:28;;;;;;;53.90;26.73;;;3.20;99.90;;;;;;5118350;27;20230;-73
2022/12/01 12:33:58;;;;;;;51.97;27.13;;;3.50;99.90;;;;;;5128444;27;20477;-78
2022/12/01 12:36:57;;;;;;;56.57;26.10;;;3.60;99.90;;;;;;5091879;28;20214;-75
2022/12/01 12:40:03;;;;;;;48.80;25.87;;;3.40;99.90;;;;;;5100453;27;20701;-74
2022/12/01 12:43:04;;;;;;;54.63;25.17;;;3.30;99.90;;;;;;5113658;27;20233;-73
2022/12/01 12:46:03;;;;;;;42.67;23.03;;;3.10;99.90;;;;;;5120247;27;20397;-73
2022/12/01 12:49:16;;;;;;;53.73;25.40;;;3.10;99.90;;;;;;5117628;27;20214;-72
2022/12/01 14:13:20;;;;;;;14.13;9.13;;;3.00;99.90;;;;;;4997472;27;1290652;-73
2022/12/01 14:16:09;;;;;;;17.27;9.60;;;2.90;99.90;;;;;;5048319;28;20236;-73
2022/12/01 14:18:59;;;;;;;17.63;9.80;;;2.70;99.90;;;;;;5044216;28;20589;-74
2022/12/01 14:21:49;;;;;;;17.73;9.27;;;2.70;99.90;;;;;;5052217;28;20878;-74
2022/12/01 14:24:41;;;;;;;15.07;9.57;;;2.70;99.90;;;;;;5049321;28;20222;-73
2022/12/01 14:27:35;;;;;;;16.27;9.70;;;2.60;99.90;;;;;;5037204;28;20839;-74
2022/12/01 14:31:12;;;;;;;17.97;9.77;;;2.60;99.90;;;;;;5048761;28;20231;-73
2022/12/01 14:34:07;;;;;;;16.27;9.00;;;2.50;99.90;;;;;;4977890;28;20234;-74
2022/12/01 14:37:02;;;;;;;18.17;10.03;;;2.50;99.90;;;;;;5052981;28;20231;-74
2022/12/01 14:39:57;;;;;;;15.90;10.23;;;2.70;99.90;;;;;;5052698;28;20219;-74
2022/12/01 14:46:04;;;;;;;19.80;10.57;;;2.60;99.90;;;;;;5035872;28;21933;-74
2022/12/01 14:48:55;;;;;;;17.83;10.90;;;2.80;99.90;;;;;;5043296;28;20253;-75
2022/12/01 14:51:51;;;;;;;20.80;11.77;;;2.50;99.90;;;;;;5038767;28;20643;-74
2022/12/01 14:54:45;;;;;;;18.20;11.60;;;2.60;99.90;;;;;;5046116;28;20277;-73
2022/12/01 14:57:39;;;;;;;16.37;11.13;;;2.40;99.90;;;;;;5033616;28;20405;-74
2022/12/01 15:00:28;;;;;;;18.93;11.63;;;2.70;99.90;;;;;;5049658;28;20212;-74
2022/12/01 17:52:08;;;;;;;41.13;21.17;;;1.70;99.90;;;;;;5039359;27;20662;-72
2022/12/01 17:54:57;;;;;;;43.97;22.00;;;1.70;99.90;;;;;;5054423;28;20222;-73
2022/12/01 17:57:46;;;;;;;40.47;22.87;;;1.70;99.90;;;;;;5080670;28;20227;-73
2022/12/01 18:00:35;;;;;;;39.93;22.40;;;1.50;99.90;;;;;;5089210;28;20777;-75
2022/12/01 18:03:23;;;;;;;41.80;22.87;;;1.60;99.90;;;;;;5100132;28;20226;-73
2022/12/01 18:06:13;;;;;;;39.13;22.33;;;1.30;99.90;;;;;;5094582;28;20256;-72
2022/12/01 18:09:03;;;;;;;42.37;24.23;;;1.50;99.90;;;;;;5084505;28;20230;-74
2022/12/01 18:11:54;;;;;;;45.43;24.37;;;1.30;99.90;;;;;;5103281;28;20342;-74
2022/12/01 18:14:42;;;;;;;39.63;24.60;;;1.20;99.90;;;;;;5070346;28;20683;-74
2022/12/01 18:17:31;;;;;;;41.37;24.07;;;1.30;99.90;;;;;;5097447;28;20219;-73
2022/12/01 18:20:20;;;;;;;40.37;24.03;;;1.40;99.90;;;;;;5103201;27;20315;-73
2022/12/01 18:23:09;;;;;;;43.50;25.33;;;1.40;99.90;;;;;;5107746;28;20211;-73
2022/12/01 18:26:02;;;;;;;43.93;24.80;;;1.50;99.90;;;;;;5101739;28;20220;-73
2022/12/01 18:28:54;;;;;;;40.40;24.47;;;1.50;99.90;;;;;;5101180;28;20429;-74
2022/12/01 18:31:43;;;;;;;42.07;23.73;;;1.70;99.90;;;;;;5111858;27;20242;-73
2022/12/01 18:34:32;;;;;;;41.67;24.77;;;1.90;99.90;;;;;;5110935;27;20225;-74
2022/12/01 18:37:21;;;;;;;40.07;24.13;;;1.70;99.90;;;;;;5112761;27;20237;-74
2022/12/01 18:40:11;;;;;;;41.00;24.33;;;1.60;99.90;;;;;;5110321;27;20221;-74
2022/12/01 18:43:01;;;;;;;38.33;24.20;;;1.60;99.90;;;;;;5102824;27;20216;-72
2022/12/01 18:45:49;;;;;;;37.77;23.27;;;1.60;99.90;;;;;;5078299;27;20222;-75
2022/12/01 18:48:38;;;;;;;44.70;24.93;;;1.50;99.90;;;;;;5091535;28;20228;-73
2022/12/01 18:51:26;;;;;;;44.50;25.23;;;1.60;99.90;;;;;;5113822;27;20225;-74
2022/12/01 18:54:16;;;;;;;39.20;23.60;;;1.60;99.90;;;;;;5095049;28;20220;-75
2022/12/01 18:57:04;;;;;;;38.60;23.13;;;1.70;99.90;;;;;;5116324;27;20216;-74
2022/12/01 18:59:55;;;;;;;39.87;23.97;;;1.70;99.90;;;;;;5095153;28;20226;-74
2022/12/01 19:02:44;;;;;;;39.00;23.57;;;1.60;99.90;;;;;;5082301;28;20290;-74
2022/12/01 19:05:37;;;;;;;41.63;23.30;;;1.20;99.90;;;;;;5096330;27;20222;-74
2022/12/01 19:08:25;;;;;;;43.57;24.93;;;1.40;99.90;;;;;;5094576;28;20212;-73